Belmont, TX (78604)

11:49 AM CDT on October 21, 2014 (GMT -0500)
Saltcreek Ranch | Change Station
CLOSE
Current Station
Personal Weather Station
Location: Seguin, TX
Elevation: 466 ft
Nearby Weather Stations

Elev 466 ft 29.53 °N, 97.83 °W | Updated 7 minutes ago

Clear
Clear
75.5 °F
Feels Like 78 °F
N
1.0
Wind Variable Wind from East
Gusts 4.0 mph

Today
High -- | Low -- °F
--% Chance of Precip.
Yesterday
High -- | Low -- °F
Precip. -- in
7:36 AM 6:54 PM
Waning Crescent, 5% visible
Pressure 30.07 in
Visibility 10.0 miles
Clouds Clear
Heat Index 78 °F
Dew Point 60 °F
Humidity 59%
Rainfall 0.00 in
Snow Depth Not available.
UV 6 out of 12
Pollen 6.30 out of 12
Air Quality Not available.
Flu Activity Sporadic
METAR KT20 211635Z AUTO 06005KT 10SM CLR 25/15 A3007 RMK AO2 T02540150

More Conditions Fewer Conditions

Pressure 30.07 in
Visibility 10.0 miles
Clouds Clear
Heat Index 78 °F
Dew Point 60 °F
Humidity 59%
Rainfall 0.00 in
Snow Depth Not available.
UV 6 out of 12
Pollen 6.30 out of 12
Air Quality Not available.
Flu Activity Sporadic
METAR KT20 211635Z AUTO 06005KT 10SM CLR 25/15 A3007 RMK AO2 T02540150

More Conditions Fewer Conditions

10-Day Weather Forecast

Almanac

Astronomy

Oct. 21, 2014 Rise Set
Actual Time 7:36 AM CDT 6:54 PM CDT
Civil Twilight 7:12 AM CDT 7:18 PM CDT
Nautical Twilight 6:44 AM CDT 7:46 PM CDT
Astronomical Twilight 6:16 AM CDT 8:13 PM CDT
Moon 5:31 AM CDT 5:41 PM CDT
Length of Visible Light 12h 06m
Length of Day
11h 17m
Tomorrow will be 1m 39s shorter.
Waning Crescent, 5% of the Moon is Illuminated
Today
Waning Crescent
Oct 23
New
Oct 30
First Quarter
Nov 6
Full
Nov 14
Last Quarter

Today's Extremes

State Highs State Lows

Community

WunderPhotos

Upload Photos

1,763,712 photos uploaded!

Nearby

Air Quality

  Air Quality AQ Index Pollutant
Yesterday Moderate
OZONE
Tuesday Moderate
OZONE
Tuesday Good
PM10
Wednesday Moderate
OZONE
Wednesday Good
PM10
Thursday Moderate
OZONE
Thursday Good
PM10
Friday Moderate
OZONE
Friday Good
PM10

Snow Depth

Station Depth Elevation
No new snow has been reported.

Earthquake Activity

City Distance Mag. Time & Date
No recent earthquake activity has been reported nearby.
Minimum magnitude displayed is 2.5.

Coastal Water Temperatures

Place Temperature
No Stations Reporting

Nearby Weather Stations